Latest Coastal Weather Observations for Eucla

IDW60701

Issued at 6:23 pm WST Friday 15 December 2017 (issued every 10 minutes, with the page automatically refreshed every 10 minutes)

About coastal observations | Map of coastal stations | Coastal observations for WA | Marine services | Other Formats
Station Details ID: 011003 Name: EUCLA Lat: -31.68 Lon: 128.90 Height: 93.1 m
Data from the previous 72 hours. | See also: Recent months at Eucla
Date/Time
WST
Temp
°C
Wind Pressure Rain since
9am
mm
Weather Cloud Vis
km
Sea
Height
m
Swell
Dir  Spd
kts
Gust
kts
hPa Trend Height
m
Period
s
Dir
15/06:00pm 18.3 SE 11 17 1013.4 - 0.0 - - - - - - -
15/05:30pm 18.5 SE 11 17 1013.2 - 0.0 - - - - - - -
15/05:00pm 20.1 ESE 12 17 1013.2 - 0.0 - - - - - - -
15/04:30pm 20.6 ESE 11 16 1012.8 - 0.0 - - - - - - -
15/04:00pm 19.8 ESE 10 15 1012.7 - 0.0 - - - - - - -
15/03:30pm 20.7 SE 11 16 1012.6 - 0.0 - - - - - - -
15/03:00pm 21.5 SE 11 18 1012.6 - 0.0 - - - - - - -
15/02:30pm 20.9 SE 10 15 1012.6 - 0.0 - - - - - - -
15/02:00pm 21.9 SE 10 15 1012.7 - 0.0 - - - - - - -
15/01:30pm 21.9 SE 9 14 1012.9 - 0.0 - - - - - - -
15/01:00pm 22.9 SE 10 15 1013.0 - 0.0 - - - - - - -
15/12:30pm 22.9 SSE 9 15 1013.2 - 0.0 - - - - - - -
15/12:00pm 23.5 SSE 9 14 1013.4 - 0.0 - - - - - - -
15/11:30am 23.3 SE 9 15 1013.6 - 0.0 - - - - - - -
15/11:00am 23.7 SSE 9 14 1013.8 - 0.0 - - - - - - -
15/10:30am 24.2 SE 9 14 1014.0 - 0.0 - - - - - - -
15/10:00am 23.9 SE 8 13 1014.1 - 0.0 - - - - - - -
15/09:30am 23.7 SE 8 11 1014.3 - 0.0 - - - - - - -
15/09:00am 24.0 NNW 5 9 1014.5 - 0.0 - - - - - - -
15/08:30am 23.8 NW 5 7 1014.7 - 0.0 - - - - - - -
15/08:00am 22.1 NNW 5 8 1014.8 - 0.0 - - - - - - -
15/07:30am 20.7 NNE 7 9 1014.9 - 0.0 - - - - - - -
15/07:00am 19.5 N 7 11 1014.9 - 0.0 - - - - - - -
15/06:30am 18.1 NNE 8 11 1015.0 - 0.0 - - - - - - -
15/06:00am 16.3 N 5 7 1014.9 - 0.0 - - - - - - -
15/05:30am 13.3 N 6 7 1014.7 - 0.0 - - - - - - -
15/05:00am 11.1 N 6 7 1014.5 - 0.0 - - - - - - -
15/04:30am 9.4 N 6 6 1014.4 - 0.0 - - - - - - -
15/04:00am 9.1 N 5 6 1014.3 - 0.0 - - - - - - -
15/03:30am 9.6 N 6 6 1014.4 - 0.0 - - - - - - -
15/03:00am 10.0 NNE 5 5 1014.1 - 0.0 - - - - - - -
15/02:30am 10.2 NNE 5 6 1014.1 - 0.0 - - - - - - -
15/02:00am 10.1 NNE 5 5 1014.1 - 0.0 - - - - - - -
15/01:30am 9.7 N 5 6 1014.3 - 0.0 - - - - - - -
15/01:00am 10.6 NNE 5 6 1014.6 - 0.0 - - - - - - -
15/12:30am 10.8 ENE 4 5 1014.9 - 0.0 - - - - - - -
15/12:00am 10.8 CALM 0 2 1015.6 - 0.0 - - - - - - -
 
Date/Time
WST
Temp
°C
Wind Pressure Rain since
9am
mm
Weather Cloud Vis
km
Sea
Height
m
Swell
Dir  Spd
kts
Gust
kts
hPa Trend Height
m
Period
s
Dir
14/11:30pm 12.5 E 4 5 1015.9 - 0.0 - - - - - - -
14/11:00pm 13.0 ESE 4 5 1016.2 - 0.0 - - - - - - -
14/10:30pm 13.8 ESE 4 5 1016.3 - 0.0 - - - - - - -
14/10:00pm 13.9 ESE 5 5 1016.8 - 0.0 - - - - - - -
14/09:30pm 14.8 ESE 5 6 1017.0 - 0.0 - - - - - - -
14/09:00pm 16.0 SE 5 7 1016.9 - 0.0 - - - - - - -
14/08:30pm 15.9 SE 5 6 1016.8 - 0.0 - - - - - - -
14/08:00pm 16.0 SE 4 5 1016.4 - 0.0 - - - - - - -
14/07:30pm 16.2 SE 4 5 1016.2 - 0.0 - - - - - - -
14/07:00pm 16.4 SSE 5 7 1016.2 - 0.0 - - - - - - -
14/06:30pm 17.0 SSE 6 8 1016.0 - 0.0 - - - - - - -
14/06:00pm 18.0 SSE 7 10 1015.8 - 0.0 - - - - - - -
14/05:30pm 19.0 SE 8 12 1015.5 - 0.0 - - - - - - -
14/05:00pm 19.7 SSE 8 12 1015.3 - 0.0 - - - - - - -
14/04:30pm 19.8 SSE 9 14 1015.2 - 0.0 - - - - - - -
14/04:00pm 20.4 SSE 10 15 1015.3 - 0.0 - - - - - - -
14/03:30pm 20.4 S 10 15 1015.1 - 0.0 - - - - - - -
14/03:00pm 20.9 S 9 16 1015.2 - 0.0 - - - - - - -
14/02:30pm 21.4 S 10 16 1015.4 - 0.0 - - - - - - -
14/02:00pm 21.4 S 10 17 1015.6 - 0.0 - - - - - - -
14/01:30pm 21.6 S 10 16 1015.8 - 0.0 - - - - - - -
14/01:00pm 21.6 S 11 18 1016.1 - 0.0 - - - - - - -
14/12:30pm 22.2 S 10 17 1016.2 - 0.0 - - - - - - -
14/12:00pm 22.2 S 11 18 1016.4 - 0.0 - - - - - - -
14/11:30am 21.6 S 11 17 1016.8 - 0.0 - - - - - - -
14/11:00am 21.9 S 11 17 1017.1 - 0.0 - - - - - - -
14/10:30am 21.7 SSE 10 16 1017.2 - 0.0 - - - - - - -
14/10:00am 21.0 S 10 15 1017.2 - 0.0 - - - - - - -
14/09:30am 20.4 S 10 15 1016.9 - 0.0 - - - - - - -
14/09:00am 19.2 S 9 15 1016.9 - 0.2 - - - - - - -
14/08:30am 19.7 S 10 15 1016.7 - 0.2 - - - - - - -
14/08:00am 20.9 SSW 10 15 1016.4 - 0.2 - - - - - - -
14/07:30am 19.5 SSW 9 17 1016.2 - 0.2 - - - - - - -
14/07:00am 18.8 SSW 8 14 1016.1 - 0.2 - - - - - - -
14/06:30am 17.2 SW 5 7 1016.0 - 0.2 - - - - - - -
14/06:00am 15.7 WSW 7 10 1015.8 - 0.2 - - - - - - -
14/05:30am 15.0 WSW 7 10 1015.7 - 0.2 - - - - - - -
14/05:00am 14.4 W 7 10 1015.4 - 0.2 - - - - - - -
14/04:30am 13.7 WNW 5 6 1015.2 - 0.2 - - - - - - -
14/04:00am 12.9 WNW 5 6 1015.0 - 0.2 - - - - - - -
14/03:30am 13.3 WNW 5 6 1014.7 - 0.2 - - - - - - -
14/03:00am 13.1 WNW 4 5 1014.6 - 0.2 - - - - - - -
14/02:30am 14.3 WNW 5 5 1014.6 - 0.2 - - - - - - -
14/02:00am 15.0 WNW 4 4 1014.6 - 0.2 - - - - - - -
14/01:30am 15.0 WNW 4 5 1014.7 - 0.2 - - - - - - -
14/01:00am 15.0 WSW 4 6 1014.7 - 0.2 - - - - - - -
14/12:30am 15.2 WSW 4 6 1014.8 - 0.2 - - - - - - -
14/12:00am 15.5 WSW 6 8 1014.6 - 0.2 - - - - - - -
 
Date/Time
WST
Temp
°C
Wind Pressure Rain since
9am
mm
Weather Cloud Vis
km
Sea
Height
m
Swell
Dir  Spd
kts
Gust
kts
hPa Trend Height
m
Period
s
Dir
13/11:30pm 15.7 SW 4 5 1014.7 - 0.2 - - - - - - -
13/11:00pm 16.2 SW 4 6 1014.6 - 0.2 - - - - - - -
13/10:30pm 16.2 WSW 4 6 1014.9 - 0.2 - - - - - - -
13/10:00pm 16.4 SW 5 8 1015.1 - 0.2 - - - - - - -
13/09:30pm 16.1 SSW 5 5 1015.1 - 0.2 - - - - - - -
13/09:00pm 16.4 SE 2 4 1015.3 - 0.2 - - - - - - -
13/08:30pm 16.7 SE 5 7 1015.3 - 0.2 - - - - - - -
13/08:00pm 16.7 S 5 8 1015.1 - 0.2 - - - - - - -
13/07:30pm 16.9 SSE 8 12 1014.4 - 0.2 - - - - - - -
13/07:00pm 17.2 SSE 8 13 1013.8 - 0.2 - - - - - - -
13/06:30pm 17.4 S 10 17 1013.4 - 0.2 - - - - - - -
13/06:00pm 17.8 S 12 18 1012.9 - 0.2 - - - - - - -
13/05:30pm 18.3 S 12 18 1012.4 - 0.2 - - - - - - -
13/05:00pm 18.7 S 13 20 1012.0 - 0.2 - - - - - - -
13/04:30pm 18.8 S 14 20 1011.8 - 0.2 - - - - - - -
13/04:00pm 19.7 S 15 23 1011.9 - 0.2 - - - - - - -
13/03:51pm 19.8 S 15 25 1011.9 - 0.2 - - - - - - -
13/03:30pm 19.9 S 15 23 1011.7 - 0.2 - - - - - - -
13/03:06pm 19.0 S 15 25 1011.7 - 0.2 - - - - - - -
13/03:00pm 18.8 S 14 20 1011.7 - 0.2 - - - - - - -
13/02:30pm 18.0 S 13 20 1011.7 - 0.2 - - - - - - -
13/02:00pm 18.6 SSW 12 20 1011.7 - 0.2 - - - - - - -
13/01:30pm 19.1 SSW 14 19 1011.5 - 0.2 - - - - - - -
13/01:00pm 18.8 SSW 13 20 1011.6 - 0.2 - - - - - - -
13/12:30pm 19.2 SSW 12 18 1011.5 - 0.2 - - - - - - -
13/12:00pm 19.9 SSW 11 18 1011.4 - 0.2 - - - - - - -
13/11:30am 20.1 SW 13 19 1011.2 - 0.2 - - - - - - -
13/11:00am 19.6 SSW 13 18 1011.2 - 0.2 - - - - - - -
13/10:30am 19.4 SW 10 16 1011.3 - 0.0 - - - - - - -
13/10:00am 19.3 SW 9 14 1011.1 - 0.0 - - - - - - -
13/09:30am 19.4 SW 9 14 1011.0 - 0.0 - - - - - - -
13/09:00am 19.0 SW 9 17 1010.7 - 6.6 - - - - - - -
13/08:30am 19.5 SW 10 15 1010.5 - 6.6 - - - - - - -
13/08:00am 19.2 WSW 10 15 1010.4 - 6.6 - - - - - - -
13/07:30am 19.6 WSW 11 16 1010.3 - 6.6 - - - - - - -
13/07:00am 19.2 WSW 10 14 1010.3 - 6.6 - - - - - - -
13/06:30am 19.0 WSW 8 14 1010.0 - 6.6 - - - - - - -
13/06:00am 18.9 WSW 9 15 1009.6 - 6.6 - - - - - - -
13/05:30am 18.8 WSW 10 15 1009.1 - 6.6 - - - - - - -
13/05:00am 19.2 WSW 8 13 1008.7 - 6.6 - - - - - - -
13/04:30am 19.2 WSW 7 11 1008.0 - 6.6 - - - - - - -
13/04:00am 19.2 WSW 7 10 1007.6 - 6.6 - - - - - - -
13/03:30am 19.0 WSW 10 15 1007.1 - 6.6 - - - - - - -
13/03:00am 19.3 WNW 5 7 1006.1 - 6.6 - - - - - - -
13/02:30am 19.5 NNW 7 10 1005.5 - 6.6 - - - - - - -
13/02:00am 19.5 N 11 15 1004.7 - 6.6 - - - - - - -
13/01:30am 19.5 N 9 13 1004.7 - 6.6 - - - - - - -
13/01:00am 19.3 NNE 13 16 1004.2 - 6.6 - - - - - - -
13/12:30am 18.9 NNE 15 20 1003.6 - 6.6 - - - - - - -
13/12:24am 18.8 NE 15 25 1003.6 - 6.6 - - - - - - -
13/12:10am 18.6 NE 13 19 1004.3 - 6.6 - - - - - - -
13/12:00am 18.7 NE 8 11 1006.5 - 6.4 Rain - - - - - -
 
Date/Time
WST
Temp
°C
Wind Pressure Rain since
9am
mm
Weather Cloud Vis
km
Sea
Height
m
Swell
Dir  Spd
kts
Gust
kts
hPa Trend Height
m
Period
s
Dir
12/11:30pm 19.0 E 6 9 1007.8 - 5.4 - - - - - - -
12/11:00pm 19.2 SE 6 9 1008.6 - 4.8 - - - - - - -
12/10:30pm 19.6 S 8 12 1009.0 - 4.8 - - - - - - -
12/10:00pm 20.0 SW 9 15 1010.0 - 3.0 - - - - - - -
12/09:30pm 20.2 S 8 11 1009.3 - 2.6 - - - - - - -
12/09:00pm 20.6 SSW 11 20 1008.4 - 2.6 - - - - - - -
12/08:30pm 20.4 SW 9 13 1008.4 - 2.6 - - - - - - -
12/08:00pm 20.7 SE 8 12 1007.0 - 2.6 - - - - - - -
12/07:30pm 20.5 SSE 7 11 1006.1 - 2.6 - - - - - - -
12/07:00pm 21.0 SSE 8 9 1006.4 - 2.6 - - - - - - -
12/06:30pm 21.6 SE 8 10 1006.5 - 2.6 - - - - - - -

Other Formats:

Comma delimited format used in spreadsheet applications
http://www.bom.gov.au/fwo/IDW60701/IDW60701.94647.axf

JavaScript Object Notation format (JSON) in row-major order
http://www.bom.gov.au/fwo/IDW60701/IDW60701.94647.json